Time;durP1;ratioP1;P1;durP2;ratioP2;P2;SDS_P1;SDS_P2;PMS_P1;PMS_P2;Temp;Humidity;BMP_temperature;BMP_pressure;BME280_temperature;BME280_humidity;BME280_pressure;Samples;Min_cycle;Max_cycle;Signal;HPM_P1;HPM_P2
2022/10/05 00:00:58;;;;;;;19.27;12.00;;;;;;;5.74;81.80;100857.02;2094969;84;21087;-78
2022/10/05 00:04:18;;;;;;;19.48;11.40;;;;;;;5.76;82.06;100851.64;2092768;84;21465;-79
2022/10/05 00:07:21;;;;;;;19.75;11.30;;;;;;;5.82;82.56;100855.13;2100221;84;20998;-79
2022/10/05 00:10:22;;;;;;;23.25;12.10;;;;;;;5.92;83.00;100853.47;2077773;85;21053;-79
2022/10/05 00:13:29;;;;;;;23.52;11.95;;;;;;;6.00;83.19;100851.59;2073932;85;21104;-79
2022/10/05 00:16:31;;;;;;;20.60;11.60;;;;;;;6.04;83.20;100834.58;2078514;85;21065;-79
2022/10/05 00:19:36;;;;;;;21.17;10.45;;;;;;;6.10;83.12;100829.30;2079975;85;21057;-79
2022/10/05 00:22:37;;;;;;;20.08;9.23;;;;;;;6.09;82.69;100835.06;2074270;85;21520;-79
2022/10/05 00:25:38;;;;;;;17.87;9.73;;;;;;;6.06;82.27;100832.18;2079201;85;21105;-79
2022/10/05 00:28:41;;;;;;;20.80;8.45;;;;;;;6.03;81.83;100841.65;2064910;85;22195;-79
2022/10/05 00:31:42;;;;;;;18.20;11.00;;;;;;;6.00;81.74;100835.78;2077149;85;21026;-79
2022/10/05 00:34:45;;;;;;;16.30;10.13;;;;;;;5.92;81.88;100827.61;2077234;85;21097;-78
2022/10/05 00:37:53;;;;;;;18.30;10.82;;;;;;;5.88;82.27;100829.62;2067898;85;20994;-79
2022/10/05 00:41:19;;;;;;;18.98;10.63;;;;;;;5.79;82.24;100823.27;2078469;85;21089;-78
2022/10/05 00:44:53;;;;;;;21.33;10.40;;;;;;;5.73;82.54;100826.38;2077014;85;21568;-78
2022/10/05 00:48:21;;;;;;;16.93;10.43;;;;;;;5.67;82.80;100813.70;2075713;85;21108;-78
2022/10/05 00:51:36;;;;;;;19.50;10.38;;;;;;;5.61;82.88;100804.96;2074752;85;21065;-78
2022/10/05 00:54:45;;;;;;;18.10;10.28;;;;;;;5.55;83.17;100804.12;2080152;85;21113;-79
2022/10/05 00:58:23;;;;;;;24.10;10.80;;;;;;;5.59;83.80;100806.86;2071546;85;21137;-78
2022/10/05 01:01:45;;;;;;;22.82;10.90;;;;;;;5.66;84.04;100803.27;2080761;85;21084;-78
2022/10/05 01:04:53;;;;;;;23.62;11.70;;;;;;;5.73;84.30;100804.48;2067613;84;21152;-79
2022/10/05 01:08:06;;;;;;;17.35;11.03;;;;;;;5.83;84.39;100804.98;2087466;85;21151;-77
2022/10/05 01:11:31;;;;;;;17.25;10.23;;;;;;;5.86;84.22;100801.27;2091859;84;21030;-77
2022/10/05 01:14:39;;;;;;;18.52;10.63;;;;;;;5.92;84.09;100803.90;1998463;88;21580;-77
2022/10/05 01:18:03;;;;;;;19.98;10.05;;;;;;;6.01;84.72;100801.89;2084914;84;21548;-77
2022/10/05 01:21:25;;;;;;;19.27;10.13;;;;;;;6.07;84.69;100797.45;2087609;84;21037;-77
2022/10/05 01:25:07;;;;;;;18.92;10.78;;;;;;;6.14;85.04;100788.11;2090830;84;21077;-77
2022/10/05 01:28:20;;;;;;;17.60;10.35;;;;;;;6.21;85.15;100785.33;2089288;84;21057;-79
2022/10/05 01:31:28;;;;;;;16.55;10.28;;;;;;;6.23;84.70;100781.27;2084405;84;21544;-79
2022/10/05 01:35:06;;;;;;;18.35;9.90;;;;;;;6.23;84.70;100779.95;2089856;84;21134;-79
2022/10/05 01:38:25;;;;;;;16.23;9.60;;;;;;;6.26;84.82;100777.91;2087038;84;21041;-79
2022/10/05 01:41:49;;;;;;;19.27;9.03;;;;;;;6.29;85.00;100775.50;2082845;84;21076;-79
2022/10/05 01:45:23;;;;;;;19.30;9.88;;;;;;;6.32;84.76;100775.73;2073013;84;21071;-78
2022/10/05 01:48:45;;;;;;;12.18;9.05;;;;;;;6.34;84.91;100772.51;2090352;84;21077;-78
2022/10/05 01:52:14;;;;;;;15.78;8.85;;;;;;;6.34;84.88;100776.46;2079953;84;21078;-79
2022/10/05 01:56:01;;;;;;;16.85;9.13;;;;;;;6.33;85.08;100765.54;2082755;84;21124;-79
2022/10/05 01:59:28;;;;;;;14.50;8.95;;;;;;;6.36;85.14;100763.97;2082602;84;21013;-78
2022/10/05 02:02:35;;;;;;;17.80;9.03;;;;;;;6.35;85.11;100758.36;2060067;84;21100;-78
2022/10/05 02:06:07;;;;;;;15.30;10.00;;;;;;;6.36;85.10;100769.25;2088192;84;21096;-78
2022/10/05 02:09:26;;;;;;;12.85;8.10;;;;;;;6.36;85.25;100774.52;2080945;84;21066;-78
2022/10/05 02:12:32;;;;;;;12.37;7.72;;;;;;;6.35;84.97;100771.53;2085857;84;21072;-79
2022/10/05 02:15:40;;;;;;;14.13;8.00;;;;;;;6.37;85.24;100772.26;2082918;85;21591;-79
2022/10/05 02:18:53;;;;;;;12.35;8.70;;;;;;;6.30;84.64;100770.58;2081740;85;21588;-79
2022/10/05 02:22:12;;;;;;;11.57;8.18;;;;;;;6.21;84.44;100770.00;2081065;85;21049;-79
2022/10/05 02:25:19;;;;;;;11.35;6.65;;;;;;;6.09;84.20;100771.83;2085454;85;21053;-79
2022/10/05 02:28:47;;;;;;;17.05;8.83;;;;;;;6.03;83.88;100777.59;2086803;85;21026;-79
2022/10/05 02:32:06;;;;;;;18.57;8.33;;;;;;;5.98;84.02;100785.01;2090114;85;21060;-79
2022/10/05 02:35:15;;;;;;;15.50;9.53;;;;;;;5.90;84.29;100791.32;2087946;85;21482;-79
2022/10/05 02:38:32;;;;;;;14.28;7.42;;;;;;;5.79;84.49;100798.73;2082159;85;21139;-79
2022/10/05 02:41:53;;;;;;;19.23;8.38;;;;;;;5.72;84.26;100793.13;2090682;85;21639;-79
2022/10/05 02:45:13;;;;;;;13.45;8.80;;;;;;;5.72;84.13;100788.34;2061983;84;21092;-79
2022/10/05 02:48:23;;;;;;;14.30;8.25;;;;;;;5.68;84.24;100781.12;2070943;84;21046;-79
2022/10/05 02:51:52;;;;;;;15.43;8.10;;;;;;;5.58;84.11;100781.02;2072408;85;21073;-79
2022/10/05 02:55:25;;;;;;;15.85;8.43;;;;;;;5.56;84.24;100772.87;2074212;85;21097;-79
2022/10/05 02:58:42;;;;;;;11.60;7.95;;;;;;;5.47;84.14;100780.17;2050976;85;21083;-79
2022/10/05 03:02:16;;;;;;;16.20;9.15;;;;;;;5.42;84.19;100772.63;2072481;85;21140;-79
2022/10/05 03:05:27;;;;;;;15.75;8.78;;;;;;;5.39;84.24;100775.00;2071657;85;21102;-79
2022/10/05 03:08:43;;;;;;;13.68;8.80;;;;;;;5.37;84.55;100771.64;2069661;85;21414;-79
2022/10/05 03:11:53;;;;;;;15.63;8.95;;;;;;;5.29;84.58;100776.65;2102138;84;21093;-79
2022/10/05 03:15:48;;;;;;;15.05;9.40;;;;;;;5.17;84.54;100778.42;2091039;85;21046;-79
2022/10/05 03:18:59;;;;;;;14.68;8.98;;;;;;;5.10;84.72;100776.39;2084745;85;21093;-79
2022/10/05 03:22:35;;;;;;;18.82;9.15;;;;;;;5.07;84.98;100772.20;2080534;85;21214;-79
2022/10/05 03:26:07;;;;;;;17.35;10.08;;;;;;;5.06;85.26;100775.77;2072916;85;21488;-79
2022/10/05 03:29:29;;;;;;;15.80;9.25;;;;;;;5.07;85.38;100773.52;2080676;85;21124;-79
2022/10/05 03:32:50;;;;;;;18.25;9.58;;;;;;;5.08;85.30;100765.14;2066094;85;21047;-79
2022/10/05 03:36:15;;;;;;;15.90;9.00;;;;;;;5.07;85.51;100751.64;2073644;85;21577;-79
2022/10/05 03:39:42;;;;;;;14.25;9.03;;;;;;;5.06;85.82;100749.94;2077613;85;21061;-79
2022/10/05 03:43:35;;;;;;;15.30;9.65;;;;;;;5.10;86.45;100740.88;2085095;84;21098;-79
2022/10/05 03:47:01;;;;;;;15.88;9.13;;;;;;;5.26;87.15;100741.36;2081689;85;21588;-80
2022/10/05 03:50:24;;;;;;;18.30;9.33;;;;;;;5.39;87.25;100742.11;2082746;85;21123;-79
2022/10/05 03:53:30;;;;;;;18.48;9.15;;;;;;;5.49;87.23;100755.86;2080682;85;21080;-79
2022/10/05 03:56:46;;;;;;;14.95;9.15;;;;;;;5.57;87.29;100755.63;2077904;85;21605;-79
2022/10/05 04:00:01;;;;;;;16.87;8.98;;;;;;;5.61;86.98;100749.19;2086298;85;21516;-79
2022/10/05 04:03:30;;;;;;;16.42;8.35;;;;;;;5.68;86.98;100749.53;2072702;85;22194;-79
2022/10/05 04:06:38;;;;;;;18.62;9.80;;;;;;;5.70;86.78;100738.41;2081272;85;21073;-79
2022/10/05 04:09:43;;;;;;;16.62;8.65;;;;;;;5.74;87.04;100741.15;2070375;84;21062;-79
2022/10/05 04:12:55;;;;;;;13.80;8.53;;;;;;;5.77;87.06;100734.36;2060418;86;21010;-79
2022/10/05 04:16:02;;;;;;;13.28;8.28;;;;;;;5.80;87.28;100743.33;2061565;86;20998;-79
2022/10/05 04:19:39;;;;;;;15.03;9.28;;;;;;;5.86;87.58;100743.33;2062286;86;21086;-79
2022/10/05 04:23:15;;;;;;;15.98;9.33;;;;;;;5.93;87.67;100747.16;2059267;86;22259;-78
2022/10/05 04:26:27;;;;;;;14.33;8.63;;;;;;;6.00;87.67;100737.00;2060269;86;21085;-78
2022/10/05 04:29:40;;;;;;;14.38;9.05;;;;;;;6.06;87.89;100732.06;2062695;86;21012;-78
2022/10/05 04:32:48;;;;;;;13.72;8.33;;;;;;;6.12;87.80;100726.78;2059752;86;21143;-78
2022/10/05 04:36:22;;;;;;;13.18;8.70;;;;;;;6.17;87.79;100730.38;2085296;84;21045;-80
2022/10/05 04:39:30;;;;;;;18.05;8.70;;;;;;;6.21;87.75;100719.94;2079705;84;20985;-81
2022/10/05 04:42:48;;;;;;;11.12;8.18;;;;;;;6.26;87.79;100720.41;2079717;85;21477;-79
2022/10/05 04:46:20;;;;;;;11.33;8.18;;;;;;;6.32;87.77;100719.07;2080900;84;21097;-76
2022/10/05 04:49:46;;;;;;;12.00;8.70;;;;;;;6.35;87.82;100712.23;2056331;86;21504;-75
2022/10/05 04:53:19;;;;;;;12.75;9.08;;;;;;;6.39;87.78;100721.09;2079193;85;21046;-77
2022/10/05 04:56:30;;;;;;;21.12;8.65;;;;;;;6.42;87.73;100719.52;2091042;85;21124;-81
2022/10/05 05:00:03;;;;;;;13.98;8.93;;;;;;;6.48;87.83;100701.05;2080163;84;21073;-76
2022/10/05 05:03:53;;;;;;;15.55;8.80;;;;;;;6.54;87.92;100710.25;2091051;83;21150;-76
2022/10/05 05:07:06;;;;;;;16.52;9.65;;;;;;;6.58;87.95;100705.90;2036953;86;21033;-76
2022/10/05 05:10:32;;;;;;;11.80;8.68;;;;;;;6.64;87.98;100704.55;2013797;85;21120;-76
2022/10/05 05:14:06;;;;;;;11.63;8.10;;;;;;;6.67;87.98;100698.56;2075602;85;21105;-75
2022/10/05 05:17:49;;;;;;;15.50;7.78;;;;;;;6.71;87.94;100694.70;2085519;85;21563;-75
2022/10/05 05:21:19;;;;;;;12.23;7.92;;;;;;;6.77;87.93;100707.02;2064402;85;21143;-75
2022/10/05 05:25:03;;;;;;;13.45;8.05;;;;;;;6.82;88.07;100714.91;2086884;85;21103;-75
2022/10/05 05:28:51;;;;;;;9.30;7.35;;;;;;;6.89;88.08;100720.50;2084280;85;21056;-75
2022/10/05 05:32:08;;;;;;;10.35;7.72;;;;;;;6.94;87.96;100730.19;2088071;85;21105;-75
2022/10/05 05:35:47;;;;;;;13.68;7.47;;;;;;;7.00;87.90;100734.12;2088412;85;21635;-76
2022/10/05 05:39:22;;;;;;;12.65;7.87;;;;;;;7.00;87.70;100720.44;2082593;85;21135;-75
2022/10/05 05:42:55;;;;;;;12.43;7.50;;;;;;;7.01;87.68;100722.13;2079141;85;21077;-75
2022/10/05 05:46:21;;;;;;;9.53;6.60;;;;;;;7.05;87.77;100718.25;2083603;85;21022;-75
2022/10/05 05:49:50;;;;;;;14.07;7.85;;;;;;;7.12;87.74;100726.48;2085516;85;21069;-75
2022/10/05 05:52:59;;;;;;;12.30;7.08;;;;;;;7.17;87.63;100730.89;2089764;84;21096;-75
2022/10/05 05:56:11;;;;;;;13.18;7.53;;;;;;;7.18;87.48;100725.50;2084377;85;21037;-75
2022/10/05 05:59:27;;;;;;;13.75;7.83;;;;;;;7.23;87.46;100729.53;2086485;85;21007;-75
2022/10/05 06:02:37;;;;;;;14.18;7.83;;;;;;;7.28;87.50;100732.63;2054752;85;21111;-75
2022/10/05 06:05:46;;;;;;;13.20;8.10;;;;;;;7.27;87.34;100738.39;2057901;85;21006;-75
2022/10/05 06:08:56;;;;;;;8.88;6.92;;;;;;;7.30;87.30;100742.58;2095201;84;21029;-75
2022/10/05 06:12:21;;;;;;;14.70;7.78;;;;;;;7.34;87.36;100747.94;2103580;84;21141;-75
2022/10/05 06:15:46;;;;;;;26.62;12.35;;;;;;;7.48;87.56;100744.95;2102479;84;21032;-77
2022/10/05 06:19:09;;;;;;;10.55;7.30;;;;;;;7.95;88.21;100741.82;2103142;84;21076;-76
2022/10/05 06:22:24;;;;;;;11.53;7.08;;;;;;;8.69;88.58;100741.39;2093341;84;21798;-76
2022/10/05 06:26:01;;;;;;;9.75;6.08;;;;;;;9.38;87.75;100734.55;2072860;84;21037;-76
2022/10/05 06:29:19;;;;;;;8.75;6.58;;;;;;;11.06;87.15;100732.38;2088571;83;21079;-76
2022/10/05 06:32:48;;;;;;;11.28;5.50;;;;;;;11.06;87.15;100732.38;2093859;83;21457;-76
2022/10/05 06:36:07;;;;;;;10.23;5.75;;;;;;;11.77;85.66;100733.13;2029311;86;21113;-77
2022/10/05 06:39:52;;;;;;;10.40;4.87;;;;;;;12.37;84.25;100730.38;2065447;86;21545;-76
2022/10/05 06:43:07;;;;;;;6.62;4.70;;;;;;;12.82;82.91;100729.59;2086003;85;21069;-76
2022/10/05 06:46:23;;;;;;;7.60;4.87;;;;;;;12.85;82.21;100734.08;2085515;85;21112;-76
2022/10/05 06:50:03;;;;;;;11.75;5.05;;;;;;;12.70;80.66;100733.09;2011901;85;21727;-76
2022/10/05 06:53:37;;;;;;;6.72;4.45;;;;;;;12.46;80.80;100739.20;2079484;85;21586;-76
2022/10/05 06:56:50;;;;;;;8.68;4.60;;;;;;;12.33;80.56;100746.31;2080600;85;21124;-76
2022/10/05 07:00:06;;;;;;;6.37;5.10;;;;;;;12.41;81.02;100751.66;2080513;84;21030;-76
2022/10/05 07:03:31;;;;;;;5.87;4.80;;;;;;;12.55;80.89;100745.69;2082776;85;21562;-76
2022/10/05 07:06:46;;;;;;;9.33;4.95;;;;;;;12.69;80.53;100752.20;2042433;85;21559;-75
2022/10/05 07:10:16;;;;;;;7.55;4.30;;;;;;;13.07;80.43;100745.89;2067611;84;21113;-75
2022/10/05 07:13:38;;;;;;;9.88;4.17;;;;;;;13.49;80.31;100750.67;2002490;88;21048;-75
2022/10/05 07:17:11;;;;;;;7.03;4.35;;;;;;;13.67;79.26;100750.80;2081267;83;21171;-76
2022/10/05 07:20:24;;;;;;;7.87;4.15;;;;;;;13.51;77.67;100746.02;2080709;84;21119;-75
2022/10/05 07:23:37;;;;;;;8.58;4.25;;;;;;;13.29;77.29;100748.88;2078977;85;21312;-77
2022/10/05 07:26:44;;;;;;;7.45;4.22;;;;;;;13.08;77.22;100740.06;2067934;85;22514;-77
2022/10/05 07:29:51;;;;;;;7.08;4.15;;;;;;;12.84;77.72;100744.88;2081400;84;21037;-77
2022/10/05 07:33:01;;;;;;;7.37;4.60;;;;;;;12.75;77.96;100749.37;2073227;85;21698;-77
2022/10/05 07:40:00;;;;;;;7.30;4.03;;;;;;;12.83;78.29;100764.53;2082929;84;21583;-75
2022/10/05 07:43:45;;;;;;;9.60;4.10;;;;;;;12.84;77.75;100764.38;2096230;83;21164;-75
2022/10/05 07:47:16;;;;;;;30.50;5.45;;;;;;;12.88;78.24;100760.38;2089767;83;21077;-76
2022/10/05 07:50:40;;;;;;;7.40;4.28;;;;;;;13.03;78.36;100760.53;2101338;83;21639;-76
2022/10/05 07:53:50;;;;;;;7.58;3.67;;;;;;;13.03;77.70;100760.53;2097982;83;22082;-77
2022/10/05 07:57:18;;;;;;;4.92;3.87;;;;;;;13.07;77.56;100761.05;2100988;83;21338;-76
2022/10/05 08:00:22;;;;;;;5.47;3.72;;;;;;;13.10;77.84;100755.39;2092689;83;21124;-76
2022/10/05 08:03:30;;;;;;;9.23;4.03;;;;;;;13.22;78.05;100751.37;2094336;83;21540;-76
2022/10/05 08:06:48;;;;;;;8.15;4.15;;;;;;;13.33;77.38;100743.05;2094554;83;20997;-78
2022/10/05 08:10:30;;;;;;;5.45;3.90;;;;;;;13.35;77.04;100747.73;2086495;83;21073;-75
2022/10/05 08:13:46;;;;;;;6.28;4.15;;;;;;;13.47;77.11;100747.37;2107801;83;21002;-75
2022/10/05 08:16:50;;;;;;;6.95;4.10;;;;;;;13.70;77.48;100743.47;2102485;83;21006;-75
2022/10/05 08:20:06;;;;;;;8.60;3.72;;;;;;;14.04;77.47;100744.48;2108312;83;21136;-75
2022/10/05 08:23:48;;;;;;;8.28;4.00;;;;;;;14.35;75.88;100745.31;2062815;84;21048;-75
2022/10/05 08:26:58;;;;;;;6.85;3.75;;;;;;;14.57;76.68;100736.20;2106176;83;21033;-75
2022/10/05 08:30:04;;;;;;;5.83;3.17;;;;;;;14.76;75.74;100730.90;2096127;83;20997;-76
2022/10/05 08:33:10;;;;;;;7.75;3.85;;;;;;;14.86;75.40;100723.96;2086719;84;20995;-76
2022/10/05 08:36:14;;;;;;;5.65;3.50;;;;;;;15.03;75.08;100721.47;2103111;84;21029;-76
2022/10/05 08:39:19;;;;;;;5.58;3.30;;;;;;;15.16;74.38;100721.68;2100619;84;21082;-76
2022/10/05 08:42:38;;;;;;;7.10;3.95;;;;;;;15.21;74.20;100724.64;2108167;83;20994;-76
2022/10/05 08:46:16;;;;;;;8.43;3.67;;;;;;;15.43;74.43;100730.12;2107129;83;21136;-73
2022/10/05 08:49:55;;;;;;;5.50;3.00;;;;;;;15.66;73.56;100732.19;2104178;83;21050;-76
2022/10/05 08:53:37;;;;;;;4.00;3.02;;;;;;;15.88;72.53;100735.80;2100420;84;21611;-76
2022/10/05 08:56:46;;;;;;;6.20;3.52;;;;;;;16.13;72.26;100739.00;2098778;84;21093;-75
2022/10/05 08:59:59;;;;;;;7.25;3.40;;;;;;;16.39;71.55;100734.95;2075515;85;21038;-75
2022/10/05 09:03:41;;;;;;;5.45;3.05;;;;;;;16.71;71.02;100726.09;2072073;85;21049;-75
2022/10/05 09:07:08;;;;;;;5.05;3.02;;;;;;;16.97;70.57;100725.00;2075952;85;21125;-75
2022/10/05 09:10:30;;;;;;;3.70;2.65;;;;;;;17.24;69.32;100730.06;2073198;85;21114;-76
2022/10/05 09:14:04;;;;;;;9.95;2.75;;;;;;;17.35;67.93;100736.74;2066831;85;21034;-76
2022/10/05 09:17:18;;;;;;;7.62;2.70;;;;;;;17.39;66.81;100729.95;2079172;84;21607;-74
2022/10/05 09:20:45;;;;;;;6.20;2.60;;;;;;;17.62;68.38;100720.80;2076141;84;21018;-74
2022/10/05 09:23:52;;;;;;;3.83;2.40;;;;;;;17.94;67.55;100714.49;2053567;85;21026;-74
2022/10/05 09:27:18;;;;;;;7.40;2.30;;;;;;;18.06;65.63;100716.38;2081465;85;21479;-74
2022/10/05 09:31:00;;;;;;;3.80;2.30;;;;;;;18.12;66.22;100714.75;2079995;84;20993;-76
2022/10/05 09:34:21;;;;;;;6.55;2.45;;;;;;;18.21;66.39;100718.08;2053739;86;20963;-75
2022/10/05 09:37:57;;;;;;;5.37;3.17;;;;;;;18.33;65.26;100722.67;2080355;84;21097;-76
2022/10/05 09:41:39;;;;;;;4.62;1.80;;;;;;;18.32;65.28;100719.66;2083486;84;21045;-75
2022/10/05 09:44:46;;;;;;;4.58;1.82;;;;;;;18.32;63.75;100718.31;2058136;86;21575;-76
2022/10/05 09:48:22;;;;;;;8.38;2.15;;;;;;;18.27;63.84;100724.83;2054669;85;21097;-76
2022/10/05 09:51:53;;;;;;;4.22;1.80;;;;;;;18.26;63.46;100723.16;2070267;84;20975;-75
2022/10/05 09:55:29;;;;;;;3.33;2.08;;;;;;;18.17;63.52;100722.22;2072779;84;20979;-75
2022/10/05 09:59:04;;;;;;;3.20;1.85;;;;;;;18.11;63.49;100713.93;2064182;86;21591;-75
2022/10/05 10:02:29;;;;;;;3.65;2.00;;;;;;;18.00;62.85;100716.38;2072923;84;21030;-74
2022/10/05 10:05:55;;;;;;;6.03;2.05;;;;;;;17.84;61.98;100717.02;2070734;85;21151;-75
2022/10/05 10:09:21;;;;;;;2.52;2.10;;;;;;;17.76;62.10;100715.81;2069037;84;21690;-74
2022/10/05 10:12:52;;;;;;;5.12;1.82;;;;;;;17.78;62.21;100715.13;2049179;86;21054;-75
2022/10/05 10:16:28;;;;;;;6.30;1.60;;;;;;;17.86;61.42;100715.48;2070038;86;21092;-76
2022/10/05 10:19:39;;;;;;;2.80;1.87;;;;;;;17.95;61.58;100708.08;2073643;84;21025;-75
2022/10/05 10:23:15;;;;;;;2.72;1.85;;;;;;;18.04;61.21;100702.32;2069903;86;21584;-76
2022/10/05 10:26:46;;;;;;;3.10;1.70;;;;;;;18.12;60.05;100696.77;2069536;86;21290;-75
2022/10/05 10:30:10;;;;;;;13.72;1.85;;;;;;;18.14;58.93;100684.50;2081763;83;21041;-75
2022/10/05 10:33:41;;;;;;;1.92;1.62;;;;;;;18.15;60.16;100685.63;2057962;85;21058;-75
2022/10/05 10:37:21;;;;;;;3.22;1.85;;;;;;;18.20;60.19;100685.03;2082636;84;21076;-76
2022/10/05 10:40:33;;;;;;;2.72;1.60;;;;;;;18.26;59.10;100687.42;2083571;83;20998;-76
2022/10/05 10:44:16;;;;;;;4.00;1.60;;;;;;;18.29;58.58;100693.20;2093392;83;21059;-76
2022/10/05 10:47:51;;;;;;;6.22;1.90;;;;;;;18.32;59.10;100688.77;2072248;85;21517;-76
2022/10/05 10:51:04;;;;;;;6.60;1.72;;;;;;;18.30;57.91;100683.28;2078925;85;21070;-76
2022/10/05 10:54:23;;;;;;;3.98;1.85;;;;;;;18.35;59.33;100696.41;2048442;85;21046;-75
2022/10/05 10:57:44;;;;;;;3.35;1.77;;;;;;;18.42;57.85;100683.02;2052102;86;21082;-76
2022/10/05 11:00:53;;;;;;;4.75;1.80;;;;;;;18.38;57.57;100683.09;2080238;84;21097;-76
2022/10/05 11:04:24;;;;;;;8.13;1.95;;;;;;;18.40;57.82;100685.59;2089809;84;21024;-74
2022/10/05 11:07:59;;;;;;;3.52;1.65;;;;;;;18.45;57.57;100679.09;2071496;86;21034;-75
2022/10/05 11:11:35;;;;;;;3.30;1.90;;;;;;;18.55;57.77;100684.87;2070548;84;21564;-75
2022/10/05 11:15:00;;;;;;;4.28;1.50;;;;;;;18.73;57.18;100673.53;2024333;87;21516;-75
2022/10/05 11:18:25;;;;;;;3.00;1.57;;;;;;;18.88;55.80;100668.78;2050271;85;21017;-75
2022/10/05 11:21:35;;;;;;;2.67;1.72;;;;;;;19.06;56.18;100662.76;2041690;85;20976;-75
2022/10/05 11:24:46;;;;;;;5.65;1.72;;;;;;;19.20;53.72;100660.37;2045333;85;21018;-75
2022/10/05 11:28:29;;;;;;;3.40;1.70;;;;;;;19.22;54.00;100655.59;2056099;85;21067;-75
2022/10/05 11:31:58;;;;;;;3.17;1.67;;;;;;;19.35;54.09;100647.20;2063098;85;21027;-76
2022/10/05 11:35:23;;;;;;;4.42;1.62;;;;;;;19.33;52.74;100646.58;2056839;85;21099;-75
2022/10/05 11:38:56;;;;;;;3.60;1.50;;;;;;;19.46;53.26;100651.92;2051200;85;21034;-74
2022/10/05 11:42:30;;;;;;;3.20;1.37;;;;;;;19.51;51.48;100636.47;2056328;85;20938;-75
2022/10/05 11:45:39;;;;;;;3.20;1.60;;;;;;;19.39;51.88;100634.96;2049512;85;21109;-75
2022/10/05 11:49:09;;;;;;;3.83;1.98;;;;;;;19.36;52.36;100635.39;2055122;85;21047;-75
2022/10/05 11:52:34;;;;;;;1.87;1.50;;;;;;;19.45;52.53;100624.69;2056564;86;21053;-74
2022/10/05 11:55:46;;;;;;;2.17;1.45;;;;;;;19.54;51.40;100622.58;2054735;85;21025;-76
2022/10/05 11:59:08;;;;;;;2.45;1.47;;;;;;;19.60;51.06;100613.16;2052443;85;21041;-76
2022/10/05 12:02:47;;;;;;;4.42;1.65;;;;;;;19.59;50.93;100610.13;2033911;85;21520;-75
2022/10/05 12:06:20;;;;;;;2.42;1.70;;;;;;;19.67;51.18;100604.55;2026620;86;21029;-75
2022/10/05 12:10:16;;;;;;;1.92;1.50;;;;;;;19.83;51.32;100603.23;2031044;86;21086;-75
2022/10/05 12:13:54;;;;;;;2.05;1.40;;;;;;;20.07;51.13;100600.27;2059349;85;21058;-75
2022/10/05 12:17:10;;;;;;;9.93;1.80;;;;;;;20.33;49.91;100599.80;2046793;85;21993;-75
2022/10/05 12:20:21;;;;;;;2.77;1.70;;;;;;;20.43;49.57;100591.20;2034822;87;21093;-75
2022/10/05 12:23:40;;;;;;;3.60;1.57;;;;;;;20.44;49.32;100586.96;2043575;87;22340;-75
2022/10/05 12:26:59;;;;;;;4.47;1.50;;;;;;;20.52;49.20;100575.87;2028926;86;21062;-75
2022/10/05 12:30:06;;;;;;;3.72;1.95;;;;;;;20.58;49.95;100574.19;2062129;85;21632;-75
2022/10/05 12:33:13;;;;;;;4.60;1.57;;;;;;;20.57;49.93;100569.86;2047558;85;21057;-74
2022/10/05 12:36:19;;;;;;;4.28;2.02;;;;;;;20.40;48.99;100581.69;2032222;86;21085;-75
2022/10/05 12:39:44;;;;;;;5.60;1.95;;;;;;;20.22;48.95;100582.47;2036428;86;21409;-75
2022/10/05 12:43:15;;;;;;;5.65;1.60;;;;;;;20.07;48.86;100582.75;2036707;87;20974;-76
2022/10/05 12:46:45;;;;;;;3.50;1.70;;;;;;;19.95;49.08;100576.42;2048417;85;21611;-75
2022/10/05 12:49:58;;;;;;;2.98;1.60;;;;;;;19.74;48.33;100576.26;2066324;84;21030;-75
2022/10/05 12:53:27;;;;;;;2.67;1.87;;;;;;;19.57;48.83;100577.25;2066254;86;21077;-75
2022/10/05 12:56:48;;;;;;;4.77;1.83;;;;;;;19.52;49.29;100577.59;2066236;86;21608;-76
2022/10/05 13:00:01;;;;;;;2.22;1.90;;;;;;;19.45;49.33;100570.88;2046358;85;21040;-76
2022/10/05 13:03:23;;;;;;;5.92;1.92;;;;;;;19.44;49.49;100575.95;2052571;86;21097;-76
2022/10/05 13:06:38;;;;;;;3.10;2.10;;;;;;;19.47;50.02;100575.00;2029666;87;21034;-76
2022/10/05 13:09:51;;;;;;;6.35;2.35;;;;;;;19.60;50.17;100570.61;2032727;87;21081;-76
2022/10/05 13:13:15;;;;;;;2.65;1.90;;;;;;;19.83;50.31;100570.09;2051489;85;21096;-76
2022/10/05 13:16:28;;;;;;;2.60;1.82;;;;;;;20.05;49.73;100569.23;2064984;85;21508;-76
2022/10/05 13:19:49;;;;;;;4.83;2.00;;;;;;;20.12;49.29;100561.91;2095520;84;20997;-75
2022/10/05 13:22:55;;;;;;;3.90;1.92;;;;;;;20.23;48.40;100548.26;2073992;84;21497;-76
2022/10/05 13:26:17;;;;;;;2.75;1.95;;;;;;;20.31;48.37;100552.03;2077991;84;21033;-76
2022/10/05 13:29:36;;;;;;;2.92;1.92;;;;;;;20.37;48.88;100553.84;2071158;85;21034;-76
2022/10/05 13:32:52;;;;;;;3.97;2.10;;;;;;;20.38;49.27;100557.67;2076692;85;21538;-76
2022/10/05 13:36:17;;;;;;;5.40;2.05;;;;;;;20.33;48.25;100563.42;2073970;85;21059;-76
2022/10/05 13:39:59;;;;;;;3.45;1.70;;;;;;;20.24;48.55;100560.14;2067314;85;21007;-76
2022/10/05 13:43:42;;;;;;;4.80;1.65;;;;;;;20.12;48.81;100551.14;2075945;84;21564;-76
2022/10/05 13:47:07;;;;;;;3.47;2.00;;;;;;;19.99;48.97;100545.84;2071523;84;21045;-76
2022/10/05 13:50:23;;;;;;;6.45;2.27;;;;;;;19.86;48.88;100541.39;2063389;84;21049;-76
2022/10/05 13:53:56;;;;;;;2.85;1.72;;;;;;;19.81;49.02;100539.86;2071104;85;21062;-76
2022/10/05 13:57:19;;;;;;;2.85;1.72;;;;;;;19.74;48.66;100533.68;2042426;85;22436;-76
2022/10/05 14:00:25;;;;;;;4.37;1.67;;;;;;;19.63;48.73;100547.30;2074158;85;21101;-76
2022/10/05 14:03:36;;;;;;;3.85;1.92;;;;;;;19.54;48.81;100543.19;2072551;84;21088;-76
2022/10/05 14:06:38;;;;;;;3.90;1.80;;;;;;;19.43;48.92;100536.64;2071075;85;21018;-76
2022/10/05 14:09:44;;;;;;;5.22;1.80;;;;;;;19.36;49.57;100533.15;2076377;84;21004;-76
2022/10/05 14:12:49;;;;;;;9.13;1.60;;;;;;;19.33;49.28;100543.81;2057065;85;21676;-76
2022/10/05 14:16:20;;;;;;;5.87;1.92;;;;;;;19.27;49.62;100550.05;2043027;85;21120;-73
2022/10/05 14:19:35;;;;;;;3.00;1.52;;;;;;;19.23;49.63;100552.35;2038777;87;21569;-75
2022/10/05 14:22:41;;;;;;;4.95;2.00;;;;;;;19.21;49.97;100542.84;2036724;87;21010;-76
2022/10/05 14:25:52;;;;;;;3.60;1.90;;;;;;;19.19;49.68;100544.91;2036418;87;21555;-76
2022/10/05 14:29:03;;;;;;;6.72;3.30;;;;;;;19.15;49.74;100543.70;2032859;87;21031;-76
2022/10/05 14:32:17;;;;;;;17.87;12.25;;;;;;;19.13;50.13;100539.86;2040452;87;21077;-76
2022/10/05 14:35:20;;;;;;;7.25;5.40;;;;;;;19.08;50.14;100532.95;2040461;85;21014;-76
2022/10/05 14:39:03;;;;;;;14.10;11.08;;;;;;;19.00;50.24;100527.80;2041663;85;21035;-73
2022/10/05 14:42:05;;;;;;;20.00;11.95;;;;;;;18.96;50.57;100522.55;2040420;87;21548;-73
2022/10/05 14:45:19;;;;;;;9.50;6.12;;;;;;;18.97;50.55;100524.19;2037166;85;21090;-74
2022/10/05 14:48:21;;;;;;;5.75;3.30;;;;;;;18.95;50.17;100526.26;2040431;87;21019;-73
2022/10/05 14:51:30;;;;;;;16.87;9.70;;;;;;;18.91;50.01;100523.70;2039773;85;21514;-74
2022/10/05 14:54:59;;;;;;;22.45;10.58;;;;;;;18.87;50.32;100515.23;2018331;87;21093;-74
2022/10/05 14:58:26;;;;;;;9.40;5.45;;;;;;;18.78;50.29;100495.83;2067499;85;21564;-74
2022/10/05 15:01:32;;;;;;;5.45;3.52;;;;;;;18.68;50.09;100491.37;2046076;86;21070;-74
2022/10/05 15:04:55;;;;;;;7.75;3.85;;;;;;;18.60;50.25;100490.25;2045183;86;21350;-74
2022/10/05 15:08:09;;;;;;;7.75;3.70;;;;;;;18.54;50.63;100499.98;2030241;86;21513;-74
2022/10/05 15:11:24;;;;;;;6.67;2.77;;;;;;;18.47;50.70;100491.61;2069517;85;21011;-73
2022/10/05 15:14:36;;;;;;;5.03;3.52;;;;;;;18.41;50.05;100485.73;2075806;85;21088;-74
2022/10/05 15:17:52;;;;;;;4.42;2.92;;;;;;;18.36;50.51;100484.52;2073574;85;21585;-74
2022/10/05 15:21:05;;;;;;;6.58;4.17;;;;;;;18.30;50.65;100480.48;2078400;85;21011;-74
2022/10/05 15:24:19;;;;;;;9.05;3.92;;;;;;;18.27;50.54;100484.92;2079823;85;21137;-74
2022/10/05 15:27:31;;;;;;;4.90;3.52;;;;;;;18.21;50.66;100485.23;2074656;85;21056;-74
2022/10/05 15:30:58;;;;;;;4.00;2.98;;;;;;;18.18;51.13;100488.34;2067999;85;21407;-74
2022/10/05 15:34:04;;;;;;;3.80;2.65;;;;;;;18.15;51.33;100486.08;2083380;84;21604;-75
2022/10/05 15:37:25;;;;;;;4.28;2.55;;;;;;;18.13;51.34;100482.77;2080523;85;21570;-73